createdAt,value
2022-08-25T00:01:40.300Z,2.50
2022-08-25T00:04:11.416Z,2.30
2022-08-25T00:06:44.319Z,2.10
2022-08-25T00:09:14.409Z,2.05
2022-08-25T00:11:42.173Z,2.30
2022-08-25T00:14:13.305Z,1.90
2022-08-25T00:16:41.349Z,1.90
2022-08-25T00:19:13.155Z,2.15
2022-08-25T00:21:41.665Z,2.03
2022-08-25T00:24:10.545Z,2.20
2022-08-25T00:26:42.813Z,2.55
2022-08-25T00:29:11.258Z,1.92
2022-08-25T00:31:39.452Z,2.42
2022-08-25T00:34:14.650Z,2.72
2022-08-25T00:36:43.267Z,2.15
2022-08-25T00:39:11.843Z,2.40
2022-08-25T00:41:42.030Z,2.38
2022-08-25T00:44:12.579Z,2.38
2022-08-25T00:46:47.689Z,2.55
2022-08-25T00:49:24.969Z,2.00
2022-08-25T00:51:59.288Z,2.00
2022-08-25T00:54:37.954Z,2.10
2022-08-25T00:57:07.457Z,1.98
2022-08-25T00:59:35.792Z,2.00
2022-08-25T01:02:04.554Z,2.40
2022-08-25T01:04:32.478Z,2.47
2022-08-25T01:07:01.362Z,2.25
2022-08-25T01:09:32.424Z,2.30
2022-08-25T01:12:01.096Z,2.25
2022-08-25T01:14:31.583Z,2.20
2022-08-25T01:16:59.552Z,2.42
2022-08-25T01:19:28.841Z,2.20
2022-08-25T01:21:56.956Z,2.20
2022-08-25T01:24:36.305Z,2.05
2022-08-25T01:27:04.104Z,2.15
2022-08-25T01:29:31.375Z,2.20
2022-08-25T01:32:02.984Z,2.10
2022-08-25T01:34:33.606Z,2.28
2022-08-25T01:37:01.266Z,2.63
2022-08-25T01:39:33.398Z,2.42
2022-08-25T01:42:06.375Z,2.22
2022-08-25T01:44:36.170Z,2.70
2022-08-25T01:47:04.918Z,2.30
2022-08-25T01:49:32.675Z,2.63
2022-08-25T01:52:10.953Z,2.33
2022-08-25T01:54:38.530Z,2.28
2022-08-25T01:57:06.216Z,2.38
2022-08-25T01:59:34.836Z,2.20
2022-08-25T02:02:04.963Z,2.40
2022-08-25T02:04:33.232Z,2.53
2022-08-25T02:07:03.569Z,2.33
2022-08-25T02:09:31.664Z,2.13
2022-08-25T02:11:59.661Z,2.28
2022-08-25T02:14:28.631Z,2.10
2022-08-25T02:16:56.422Z,2.30
2022-08-25T02:19:24.718Z,2.08
2022-08-25T02:21:52.720Z,1.92
2022-08-25T02:24:20.511Z,2.35
2022-08-25T02:26:48.059Z,2.05
2022-08-25T02:29:17.020Z,2.25
2022-08-25T02:31:44.599Z,2.83
2022-08-25T02:34:15.358Z,2.60
2022-08-25T02:36:43.133Z,2.60
2022-08-25T02:39:12.315Z,2.75
2022-08-25T02:41:39.892Z,2.70
2022-08-25T02:44:08.638Z,1.85
2022-08-25T02:46:37.457Z,2.00
2022-08-25T02:49:05.709Z,2.22
2022-08-25T02:51:34.084Z,2.25
2022-08-25T02:54:02.680Z,2.35
2022-08-25T02:56:31.377Z,2.20
2022-08-25T02:58:59.129Z,2.58
2022-08-25T03:01:28.773Z,2.10
2022-08-25T03:03:57.230Z,1.80
2022-08-25T03:06:25.045Z,2.15
2022-08-25T03:08:53.389Z,2.08
2022-08-25T03:11:21.771Z,2.67
2022-08-25T03:13:52.026Z,2.20
2022-08-25T03:16:20.606Z,2.40
2022-08-25T03:18:48.487Z,2.60
2022-08-25T03:21:17.323Z,2.75
2022-08-25T03:23:45.672Z,2.70
2022-08-25T03:26:31.718Z,2.45
2022-08-25T03:28:59.465Z,2.17
2022-08-25T03:31:27.914Z,2.70
2022-08-25T03:33:55.919Z,2.10
2022-08-25T03:36:23.641Z,2.28
2022-08-25T03:38:51.561Z,2.05
2022-08-25T03:41:30.363Z,1.77
2022-08-25T03:43:57.917Z,2.80
2022-08-25T03:46:27.810Z,2.13
2022-08-25T03:51:41.690Z,2.05
2022-08-25T03:54:11.058Z,2.35
2022-08-25T03:56:38.522Z,2.42
2022-08-25T03:59:09.303Z,2.55
2022-08-25T04:01:38.172Z,2.28
2022-08-25T04:04:06.567Z,2.28
2022-08-25T04:06:34.483Z,2.10
2022-08-25T04:09:02.116Z,2.28
2022-08-25T04:11:29.649Z,2.17
2022-08-25T04:14:01.389Z,2.42
2022-08-25T04:16:32.017Z,2.45
2022-08-25T04:19:02.261Z,1.90
2022-08-25T04:21:30.579Z,2.22
2022-08-25T04:23:58.040Z,2.95
2022-08-25T04:26:25.226Z,2.25
2022-08-25T04:28:52.922Z,2.03
2022-08-25T04:31:22.177Z,2.30
2022-08-25T04:33:49.780Z,2.40
2022-08-25T04:36:19.541Z,2.03
2022-08-25T04:38:48.249Z,1.65
2022-08-25T04:41:17.814Z,2.70
2022-08-25T04:43:46.041Z,1.77
2022-08-25T04:46:21.642Z,2.60
2022-08-25T04:48:50.864Z,1.73
2022-08-25T04:51:24.704Z,0.88
2022-08-25T04:53:52.490Z,0.22
2022-08-25T04:56:22.169Z,0.20
2022-08-25T04:58:49.990Z,1.10
2022-08-25T05:01:20.819Z,1.33
2022-08-25T05:03:52.924Z,1.30
2022-08-25T05:06:20.298Z,0.30
2022-08-25T05:08:47.983Z,0.73
2022-08-25T05:11:17.949Z,0.85
2022-08-25T05:13:51.675Z,1.63
2022-08-25T05:16:21.286Z,1.65
2022-08-25T05:18:49.078Z,2.05
2022-08-25T05:21:22.920Z,1.02
2022-08-25T05:23:50.735Z,1.80
2022-08-25T05:26:20.731Z,2.65
2022-08-25T05:28:51.045Z,1.50
2022-08-25T05:33:46.331Z,2.80
2022-08-25T05:36:15.498Z,2.45
2022-08-25T05:38:43.255Z,3.22
2022-08-25T05:41:13.478Z,2.47
2022-08-25T05:43:42.577Z,3.00
2022-08-25T05:46:11.076Z,2.10
2022-08-25T05:48:38.662Z,2.58
2022-08-25T05:51:08.263Z,2.78
2022-08-25T05:53:37.702Z,2.10
2022-08-25T05:56:05.157Z,2.15
2022-08-25T05:58:32.748Z,2.50
2022-08-25T06:01:20.042Z,2.85
2022-08-25T06:03:48.051Z,2.95
2022-08-25T06:06:16.438Z,2.70
2022-08-25T06:08:44.656Z,2.50
2022-08-25T06:11:13.563Z,2.15
2022-08-25T06:13:41.095Z,2.85
2022-08-25T06:16:08.705Z,2.85
2022-08-25T06:18:36.090Z,2.10
2022-08-25T06:21:12.786Z,2.88
2022-08-25T06:23:40.591Z,3.00
2022-08-25T06:26:08.463Z,3.17
2022-08-25T06:28:36.099Z,2.55
2022-08-25T06:31:03.998Z,1.60
2022-08-25T06:33:32.709Z,0.93
2022-08-25T06:36:00.232Z,2.50
2022-08-25T06:38:28.495Z,2.40
2022-08-25T06:40:57.843Z,2.88
2022-08-25T06:43:25.124Z,3.72
2022-08-25T06:45:52.568Z,2.47
2022-08-25T06:48:20.449Z,1.50
2022-08-25T06:50:48.192Z,3.10
2022-08-25T06:53:15.855Z,2.45
2022-08-25T06:55:43.444Z,2.35
2022-08-25T06:58:12.010Z,2.80
2022-08-25T07:00:39.875Z,2.80
2022-08-25T07:03:07.444Z,2.22
2022-08-25T07:05:43.392Z,2.38
2022-08-25T07:08:12.153Z,1.60
2022-08-25T07:10:39.632Z,2.05
2022-08-25T07:13:07.195Z,2.22
2022-08-25T07:15:39.174Z,2.58
2022-08-25T07:18:07.245Z,1.42
2022-08-25T07:20:35.984Z,1.50
2022-08-25T07:23:03.525Z,1.35
2022-08-25T07:25:31.171Z,1.27
2022-08-25T07:27:59.170Z,0.60
2022-08-25T07:30:27.605Z,0.75
2022-08-25T07:32:55.533Z,1.30
2022-08-25T07:35:26.193Z,1.67
2022-08-25T07:37:59.115Z,1.40
2022-08-25T07:40:29.751Z,1.52
2022-08-25T07:42:59.622Z,1.23
2022-08-25T07:45:30.983Z,1.42
2022-08-25T07:48:00.509Z,1.30
2022-08-25T07:50:28.715Z,1.20
2022-08-25T07:52:57.666Z,1.50
2022-08-25T07:55:27.187Z,0.80
2022-08-25T07:57:57.389Z,0.57
2022-08-25T08:00:29.908Z,0.80
2022-08-25T08:02:57.934Z,1.02
2022-08-25T08:05:25.955Z,1.42
2022-08-25T08:07:54.574Z,0.68
2022-08-25T08:10:53.901Z,1.27
2022-08-25T08:13:12.638Z,1.40
2022-08-25T08:15:46.913Z,1.50
2022-08-25T08:18:14.709Z,0.65
2022-08-25T08:20:45.146Z,0.88
2022-08-25T08:23:12.929Z,0.80
2022-08-25T08:25:40.508Z,1.00
2022-08-25T08:28:08.479Z,0.98
2022-08-25T08:30:38.562Z,1.02
2022-08-25T08:33:11.340Z,0.90
2022-08-25T08:35:39.359Z,0.47
2022-08-25T08:38:14.649Z,1.38
2022-08-25T08:41:36.708Z,0.43
2022-08-25T08:44:28.194Z,1.35
2022-08-25T08:47:22.400Z,1.35
2022-08-25T08:53:14.067Z,0.20
2022-08-25T08:56:04.713Z,0.88
2022-08-25T08:58:45.589Z,0.98
2022-08-25T09:01:25.163Z,1.20
2022-08-25T09:04:09.574Z,1.67
2022-08-25T09:06:48.347Z,1.50
2022-08-25T09:09:30.241Z,2.45
2022-08-25T09:12:11.540Z,1.58
2022-08-25T09:15:12.830Z,1.50
2022-08-25T09:17:54.445Z,1.63
2022-08-25T09:20:52.274Z,1.25
2022-08-25T09:23:52.522Z,2.00
2022-08-25T09:26:27.382Z,1.10
2022-08-25T09:29:16.294Z,0.95
2022-08-25T09:31:45.036Z,1.33
2022-08-25T09:34:25.147Z,0.68
2022-08-25T09:36:53.500Z,1.63
2022-08-25T09:39:21.680Z,1.70
2022-08-25T09:44:38.723Z,1.80
2022-08-25T09:47:14.170Z,2.63
2022-08-25T09:49:47.502Z,1.75
2022-08-25T09:52:33.515Z,1.75
2022-08-25T09:55:28.412Z,1.80
2022-08-25T09:57:57.782Z,1.23
2022-08-25T10:00:34.770Z,1.02
2022-08-25T10:03:02.491Z,1.88
2022-08-25T10:05:38.492Z,1.17
2022-08-25T10:08:16.367Z,1.75
2022-08-25T10:10:57.479Z,1.00
2022-08-25T10:13:36.759Z,1.48
2022-08-25T10:16:17.694Z,1.65
2022-08-25T10:19:24.553Z,0.75
2022-08-25T10:22:10.843Z,1.73
2022-08-25T10:24:44.065Z,1.17
2022-08-25T10:27:49.612Z,1.38
2022-08-25T10:30:24.740Z,1.38
2022-08-25T10:33:31.733Z,0.75
2022-08-25T10:36:20.413Z,0.93
2022-08-25T10:38:57.751Z,1.35
2022-08-25T10:41:37.356Z,0.63
2022-08-25T10:44:35.014Z,1.75
2022-08-25T10:47:08.772Z,0.63
2022-08-25T10:50:02.733Z,1.30
2022-08-25T10:52:50.395Z,1.25
2022-08-25T10:55:29.396Z,1.48
2022-08-25T10:58:17.419Z,2.17
2022-08-25T11:01:04.211Z,0.88
2022-08-25T11:03:56.626Z,1.20
2022-08-25T11:06:40.494Z,2.10
2022-08-25T11:09:13.367Z,1.27
2022-08-25T11:11:47.048Z,1.42
2022-08-25T11:14:22.790Z,2.10
2022-08-25T11:17:18.558Z,1.20
2022-08-25T11:19:49.352Z,1.58
2022-08-25T11:22:27.529Z,1.27
2022-08-25T11:25:16.448Z,1.30
2022-08-25T11:27:45.738Z,0.93
2022-08-25T11:30:15.709Z,2.33
2022-08-25T11:32:48.932Z,1.88
2022-08-25T11:35:27.514Z,0.85
2022-08-25T11:38:13.700Z,1.40
2022-08-25T11:40:53.598Z,1.90
2022-08-25T11:43:45.670Z,2.22
2022-08-25T11:46:22.533Z,1.42
2022-08-25T11:48:59.399Z,2.60
2022-08-25T11:51:48.974Z,1.58
2022-08-25T11:54:28.948Z,1.45
2022-08-25T11:57:32.642Z,1.55
2022-08-25T12:00:03.102Z,1.33
2022-08-25T12:02:39.270Z,1.95
2022-08-25T12:05:25.130Z,2.22
2022-08-25T12:08:22.224Z,0.93
2022-08-25T12:10:56.194Z,1.85
2022-08-25T12:13:39.194Z,0.93
2022-08-25T12:16:07.231Z,1.05
2022-08-25T12:18:34.489Z,1.33
2022-08-25T12:21:02.446Z,1.25
2022-08-25T12:23:34.076Z,1.20
2022-08-25T12:26:23.860Z,1.83
2022-08-25T12:29:11.338Z,1.77
2022-08-25T12:32:19.080Z,1.77
2022-08-25T12:35:23.712Z,1.35
2022-08-25T12:38:16.052Z,1.27
2022-08-25T12:40:43.335Z,1.45
2022-08-25T12:43:37.881Z,1.50
2022-08-25T12:46:21.019Z,2.22
2022-08-25T12:49:15.637Z,1.80
2022-08-25T12:52:15.762Z,1.55
2022-08-25T12:54:55.763Z,2.53
2022-08-25T12:57:43.249Z,1.70
2022-08-25T13:00:16.831Z,1.95
2022-08-25T13:03:15.077Z,2.63
2022-08-25T13:05:48.412Z,2.90
2022-08-25T13:08:46.766Z,2.20
2022-08-25T13:11:38.902Z,2.03
2022-08-25T13:14:26.982Z,1.73
2022-08-25T13:17:00.005Z,1.90
2022-08-25T13:19:35.157Z,1.42
2022-08-25T13:22:16.336Z,1.83
2022-08-25T13:24:45.607Z,1.60
2022-08-25T13:27:27.019Z,1.35
2022-08-25T13:29:58.400Z,1.83
2022-08-25T13:32:32.347Z,0.80
2022-08-25T13:35:33.151Z,1.35
2022-08-25T13:38:16.311Z,0.50
2022-08-25T13:40:44.458Z,1.10
2022-08-25T13:43:14.322Z,0.75
2022-08-25T13:45:50.515Z,1.00
2022-08-25T13:48:37.025Z,1.23
2022-08-25T13:51:10.941Z,1.38
2022-08-25T13:53:38.889Z,0.90
2022-08-25T13:56:07.376Z,1.20
2022-08-25T13:58:44.675Z,0.60
2022-08-25T14:01:22.233Z,1.17
2022-08-25T14:04:52.910Z,1.52
2022-08-25T14:07:21.127Z,1.67
2022-08-25T14:09:52.349Z,0.88
2022-08-25T14:12:35.479Z,1.58
2022-08-25T14:15:05.855Z,0.95
2022-08-25T14:17:38.750Z,1.77
2022-08-25T14:20:19.322Z,1.88
2022-08-25T14:22:47.119Z,1.55
2022-08-25T14:25:14.675Z,1.63
2022-08-25T14:28:06.909Z,1.27
2022-08-25T14:30:35.663Z,1.48
2022-08-25T14:33:04.191Z,1.77
2022-08-25T14:35:32.284Z,1.42
2022-08-25T14:38:09.258Z,1.10
2022-08-25T14:40:38.736Z,1.27
2022-08-25T14:43:09.621Z,0.85
2022-08-25T14:45:41.496Z,1.33
2022-08-25T14:48:13.654Z,1.42
2022-08-25T14:50:42.268Z,1.90
2022-08-25T14:53:11.729Z,1.23
2022-08-25T14:55:40.481Z,1.98
2022-08-25T14:58:09.690Z,1.67
2022-08-25T15:00:42.805Z,2.03
2022-08-25T15:03:17.556Z,2.00
2022-08-25T15:05:45.845Z,1.33
2022-08-25T15:08:33.856Z,1.75
2022-08-25T15:11:01.466Z,0.93
2022-08-25T15:13:36.799Z,1.90
2022-08-25T15:16:04.738Z,1.40
2022-08-25T15:18:32.849Z,2.08
2022-08-25T15:21:01.317Z,1.45
2022-08-25T15:23:30.515Z,1.88
2022-08-25T15:25:58.088Z,1.42
2022-08-25T15:28:26.635Z,1.40
2022-08-25T15:30:54.360Z,0.70
2022-08-25T15:33:22.905Z,2.20
2022-08-25T15:35:50.499Z,2.47
2022-08-25T15:38:20.644Z,1.90
2022-08-25T15:40:48.486Z,2.10
2022-08-25T15:43:16.117Z,2.00
2022-08-25T15:45:44.256Z,1.27
2022-08-25T15:48:14.336Z,1.90
2022-08-25T15:50:42.404Z,1.13
2022-08-25T15:53:10.641Z,2.42
2022-08-25T15:55:40.094Z,2.20
2022-08-25T15:58:09.058Z,1.13
2022-08-25T16:00:37.880Z,1.58
2022-08-25T16:03:07.932Z,1.58
2022-08-25T16:05:37.494Z,1.00
2022-08-25T16:08:06.843Z,1.80
2022-08-25T16:10:47.121Z,1.70
2022-08-25T16:13:14.659Z,2.47
2022-08-25T16:15:54.193Z,0.85
2022-08-25T16:18:24.508Z,1.35
2022-08-25T16:20:52.121Z,1.58
2022-08-25T16:23:21.006Z,2.10
2022-08-25T16:25:50.340Z,2.15
2022-08-25T16:28:20.742Z,1.00
2022-08-25T16:30:53.818Z,2.25
2022-08-25T16:33:22.003Z,2.63
2022-08-25T16:35:49.455Z,1.05
2022-08-25T16:38:17.848Z,1.35
2022-08-25T16:40:46.604Z,2.70
2022-08-25T16:43:15.781Z,1.52
2022-08-25T16:45:43.288Z,1.70
2022-08-25T16:48:10.911Z,1.42
2022-08-25T16:50:40.020Z,1.95
2022-08-25T16:53:27.830Z,2.75
2022-08-25T16:56:05.767Z,1.45
2022-08-25T16:58:37.739Z,4.03
2022-08-25T17:01:13.232Z,2.92
2022-08-25T17:03:44.838Z,2.40
2022-08-25T17:06:14.225Z,1.00
2022-08-25T17:08:43.024Z,2.08
2022-08-25T17:11:16.821Z,1.40
2022-08-25T17:13:46.790Z,1.27
2022-08-25T17:16:18.295Z,1.90
2022-08-25T17:18:48.125Z,1.55
2022-08-25T17:21:24.091Z,1.90
2022-08-25T17:23:53.407Z,1.85
2022-08-25T17:26:27.829Z,2.30
2022-08-25T17:28:57.499Z,0.88
2022-08-25T17:31:28.209Z,1.20
2022-08-25T17:33:55.987Z,1.70
2022-08-25T17:36:27.086Z,1.67
2022-08-25T17:38:55.261Z,1.10
2022-08-25T17:41:24.635Z,1.73
2022-08-25T17:43:52.025Z,1.73
2022-08-25T17:46:19.756Z,1.88
2022-08-25T17:48:47.275Z,0.52
2022-08-25T17:51:16.299Z,1.08
2022-08-25T17:53:44.222Z,1.27
2022-08-25T17:56:18.572Z,1.90
2022-08-25T17:58:47.580Z,1.70
2022-08-25T18:01:24.676Z,1.73
2022-08-25T18:03:53.117Z,2.20
2022-08-25T18:06:21.449Z,2.38
2022-08-25T18:08:51.667Z,2.78
2022-08-25T18:11:20.852Z,5.30
2022-08-25T18:13:48.116Z,5.38
2022-08-25T18:16:18.333Z,4.55
2022-08-25T18:18:46.046Z,2.70
2022-08-25T18:21:16.492Z,2.97
2022-08-25T18:23:44.741Z,3.25
2022-08-25T18:26:14.060Z,1.90
2022-08-25T18:28:43.884Z,3.00
2022-08-25T18:31:13.242Z,2.53
2022-08-25T18:33:44.822Z,2.10
2022-08-25T18:36:13.337Z,1.40
2022-08-25T18:39:00.166Z,0.80
2022-08-25T18:41:35.417Z,0.90
2022-08-25T18:44:03.319Z,1.60
2022-08-25T18:46:31.011Z,1.80
2022-08-25T18:48:58.471Z,1.75
2022-08-25T18:51:25.892Z,1.67
2022-08-25T18:53:58.970Z,1.67
2022-08-25T18:56:28.487Z,1.55
2022-08-25T18:58:57.478Z,1.52
2022-08-25T19:01:25.234Z,1.35
2022-08-25T19:03:52.736Z,1.60
2022-08-25T19:06:20.876Z,1.63
2022-08-25T19:08:49.003Z,1.77
2022-08-25T19:11:17.657Z,1.92
2022-08-25T19:13:50.186Z,1.73
2022-08-25T19:16:40.088Z,1.88
2022-08-25T19:19:09.301Z,1.73
2022-08-25T19:21:38.349Z,1.75
2022-08-25T19:24:06.269Z,1.80
2022-08-25T19:26:35.307Z,1.80
2022-08-25T19:29:09.236Z,1.50
2022-08-25T19:31:37.827Z,1.50
2022-08-25T19:34:08.395Z,1.63
2022-08-25T19:36:36.155Z,1.67
2022-08-25T19:39:07.043Z,1.27
2022-08-25T19:41:34.543Z,1.13
2022-08-25T19:44:03.244Z,1.40
2022-08-25T19:46:36.411Z,1.98
2022-08-25T19:49:31.427Z,1.30
2022-08-25T19:51:59.789Z,2.28
2022-08-25T19:54:36.785Z,1.83
2022-08-25T19:57:07.901Z,1.00
2022-08-25T19:59:42.968Z,0.98
2022-08-25T20:02:17.224Z,1.27
2022-08-25T20:04:49.418Z,0.93
2022-08-25T20:07:19.725Z,1.27
2022-08-25T20:09:47.179Z,1.20
2022-08-25T20:14:48.043Z,1.40
2022-08-25T20:17:23.512Z,1.20
2022-08-25T20:22:25.867Z,1.38
2022-08-25T20:24:56.218Z,1.10
2022-08-25T20:27:38.679Z,1.00
2022-08-25T20:30:29.371Z,1.40
2022-08-25T20:32:57.878Z,1.15
2022-08-25T20:35:26.646Z,0.85
2022-08-25T20:37:55.931Z,1.42
2022-08-25T20:40:26.170Z,1.40
2022-08-25T20:42:54.977Z,1.50
2022-08-25T20:45:22.987Z,0.95
2022-08-25T20:47:51.072Z,0.90
2022-08-25T20:50:18.848Z,1.00
2022-08-25T20:52:46.490Z,0.55
2022-08-25T20:55:18.824Z,1.20
2022-08-25T20:57:46.777Z,1.20
2022-08-25T21:00:16.918Z,1.20
2022-08-25T21:02:46.416Z,1.27
2022-08-25T21:05:14.327Z,1.42
2022-08-25T21:07:42.298Z,0.95
2022-08-25T21:10:14.508Z,0.88
2022-08-25T21:12:42.585Z,0.85
2022-08-25T21:15:10.843Z,0.90
2022-08-25T21:17:39.186Z,0.80
2022-08-25T21:20:08.245Z,1.13
2022-08-25T21:22:36.656Z,0.57
2022-08-25T21:25:05.443Z,0.80
2022-08-25T21:27:34.181Z,0.63
2022-08-25T21:30:01.704Z,0.70
2022-08-25T21:32:29.174Z,0.40
2022-08-25T21:34:57.065Z,0.52
2022-08-25T21:37:26.772Z,0.40
2022-08-25T21:39:54.767Z,0.70
2022-08-25T21:42:23.983Z,0.80
2022-08-25T21:44:53.595Z,0.73
2022-08-25T21:47:21.679Z,0.75
2022-08-25T21:49:51.058Z,0.68
2022-08-25T21:52:18.913Z,0.40
2022-08-25T21:54:46.741Z,0.30
2022-08-25T21:57:14.373Z,0.00
2022-08-25T21:59:43.762Z,0.75
2022-08-25T22:02:12.771Z,0.35
2022-08-25T22:04:40.602Z,0.70
2022-08-25T22:07:09.255Z,1.20
2022-08-25T22:09:36.890Z,1.10
2022-08-25T22:12:05.570Z,0.50
2022-08-25T22:14:33.839Z,0.52
2022-08-25T22:17:02.284Z,1.00
2022-08-25T22:19:30.077Z,0.95
2022-08-25T22:22:01.488Z,0.60
2022-08-25T22:24:29.332Z,0.47
2022-08-25T22:26:57.231Z,0.75
2022-08-25T22:29:26.263Z,0.82
2022-08-25T22:31:59.836Z,0.70
2022-08-25T22:34:32.720Z,0.77
2022-08-25T22:37:01.757Z,0.90
2022-08-25T22:39:31.491Z,0.50
2022-08-25T22:41:59.955Z,1.00
2022-08-25T22:44:27.806Z,1.15
2022-08-25T22:46:55.221Z,1.40
2022-08-25T22:49:23.761Z,0.80
2022-08-25T22:51:55.135Z,0.95
2022-08-25T22:54:25.464Z,0.60
2022-08-25T22:56:53.506Z,0.57
2022-08-25T22:59:22.462Z,0.60
2022-08-25T23:01:52.423Z,1.00
2022-08-25T23:04:20.932Z,0.70
2022-08-25T23:06:48.498Z,0.88
2022-08-25T23:09:16.350Z,0.80
2022-08-25T23:11:44.194Z,1.00
2022-08-25T23:14:12.445Z,0.95
2022-08-25T23:16:42.251Z,0.90
2022-08-25T23:19:14.267Z,0.75
2022-08-25T23:22:02.109Z,1.00
2022-08-25T23:24:31.379Z,0.90
2022-08-25T23:26:59.783Z,0.93
2022-08-25T23:29:28.703Z,1.35
2022-08-25T23:31:57.137Z,1.02
2022-08-25T23:34:25.980Z,1.10
2022-08-25T23:36:53.839Z,0.88
2022-08-25T23:39:22.191Z,0.88
2022-08-25T23:41:50.379Z,0.90
2022-08-25T23:44:18.845Z,0.80
2022-08-25T23:46:47.916Z,0.90
2022-08-25T23:49:18.498Z,0.98
2022-08-25T23:51:47.000Z,0.65
2022-08-25T23:54:15.906Z,0.98
2022-08-25T23:56:44.790Z,1.10
2022-08-25T23:59:24.845Z,0.47
